sensor_id;sensor_type;location;lat;lon;timestamp;pressure;altitude;pressure_sealevel;temperature;humidity
27643;BME280;15053;48.618;10.024;2023-12-04T00:00:55;94342.34;;;-5.72;93.37
27643;BME280;15053;48.618;10.024;2023-12-04T00:03:22;94344.31;;;-5.68;92.82
27643;BME280;15053;48.618;10.024;2023-12-04T00:05:48;94336.72;;;-5.68;92.73
27643;BME280;15053;48.618;10.024;2023-12-04T00:08:15;94327.38;;;-5.67;92.38
27643;BME280;15053;48.618;10.024;2023-12-04T00:10:41;94320.97;;;-5.63;92.34
27643;BME280;15053;48.618;10.024;2023-12-04T00:13:08;94319.03;;;-5.61;91.89
27643;BME280;15053;48.618;10.024;2023-12-04T00:15:34;94319.59;;;-5.59;91.63
27643;BME280;15053;48.618;10.024;2023-12-04T00:18:01;94317.84;;;-5.59;91.88
27643;BME280;15053;48.618;10.024;2023-12-04T00:20:28;94303.00;;;-5.62;90.63
27643;BME280;15053;48.618;10.024;2023-12-04T00:22:54;94299.91;;;-5.57;90.96
27643;BME280;15053;48.618;10.024;2023-12-04T00:25:21;94301.84;;;-5.59;90.80
27643;BME280;15053;48.618;10.024;2023-12-04T00:27:47;94302.59;;;-5.65;89.90
27643;BME280;15053;48.618;10.024;2023-12-04T00:30:14;94301.34;;;-5.82;89.84
27643;BME280;15053;48.618;10.024;2023-12-04T00:32:40;94293.13;;;-5.84;89.31
27643;BME280;15053;48.618;10.024;2023-12-04T00:35:07;94302.66;;;-5.93;89.19
27643;BME280;15053;48.618;10.024;2023-12-04T00:37:34;94291.84;;;-6.08;89.10
27643;BME280;15053;48.618;10.024;2023-12-04T00:40:05;94299.50;;;-6.02;88.50
27643;BME280;15053;48.618;10.024;2023-12-04T00:42:32;94305.88;;;-6.06;89.17
27643;BME280;15053;48.618;10.024;2023-12-04T00:44:59;94297.25;;;-6.11;88.95
27643;BME280;15053;48.618;10.024;2023-12-04T00:47:25;94291.41;;;-6.12;89.06
27643;BME280;15053;48.618;10.024;2023-12-04T00:49:52;94270.97;;;-6.38;89.21
27643;BME280;15053;48.618;10.024;2023-12-04T00:52:18;94281.09;;;-6.38;89.55
27643;BME280;15053;48.618;10.024;2023-12-04T00:54:45;94276.38;;;-6.41;89.52
27643;BME280;15053;48.618;10.024;2023-12-04T00:57:11;94275.50;;;-6.54;88.67
27643;BME280;15053;48.618;10.024;2023-12-04T00:59:38;94278.28;;;-6.71;88.75
27643;BME280;15053;48.618;10.024;2023-12-04T01:02:06;94280.66;;;-6.84;89.60
27643;BME280;15053;48.618;10.024;2023-12-04T01:04:33;94279.41;;;-6.94;89.14
27643;BME280;15053;48.618;10.024;2023-12-04T01:07:01;94273.94;;;-6.98;90.22
27643;BME280;15053;48.618;10.024;2023-12-04T01:09:27;94272.44;;;-6.92;90.35
27643;BME280;15053;48.618;10.024;2023-12-04T01:11:54;94273.97;;;-6.91;90.96
27643;BME280;15053;48.618;10.024;2023-12-04T01:14:21;94271.09;;;-6.88;90.76
27643;BME280;15053;48.618;10.024;2023-12-04T01:16:47;94272.59;;;-6.94;91.18
27643;BME280;15053;48.618;10.024;2023-12-04T01:19:14;94269.78;;;-6.84;92.31
27643;BME280;15053;48.618;10.024;2023-12-04T01:21:42;94254.84;;;-6.79;92.42
27643;BME280;15053;48.618;10.024;2023-12-04T01:24:08;94268.81;;;-6.62;93.11
27643;BME280;15053;48.618;10.024;2023-12-04T01:26:35;94263.44;;;-6.52;92.56
27643;BME280;15053;48.618;10.024;2023-12-04T01:29:01;94264.28;;;-6.45;93.19
27643;BME280;15053;48.618;10.024;2023-12-04T01:31:28;94256.50;;;-6.44;92.84
27643;BME280;15053;48.618;10.024;2023-12-04T01:33:54;94265.41;;;-6.48;92.84
27643;BME280;15053;48.618;10.024;2023-12-04T01:36:21;94260.09;;;-6.53;92.71
27643;BME280;15053;48.618;10.024;2023-12-04T01:38:48;94260.09;;;-6.53;93.02
27643;BME280;15053;48.618;10.024;2023-12-04T01:41:14;94263.25;;;-6.51;92.87
27643;BME280;15053;48.618;10.024;2023-12-04T01:43:41;94261.91;;;-6.47;93.47
27643;BME280;15053;48.618;10.024;2023-12-04T01:46:07;94260.22;;;-6.40;93.64
27643;BME280;15053;48.618;10.024;2023-12-04T01:48:35;94263.59;;;-6.33;93.73
27643;BME280;15053;48.618;10.024;2023-12-04T01:51:06;94267.94;;;-6.27;94.01
27643;BME280;15053;48.618;10.024;2023-12-04T01:53:35;94258.88;;;-6.36;93.08
27643;BME280;15053;48.618;10.024;2023-12-04T01:56:02;94263.31;;;-6.44;93.11
27643;BME280;15053;48.618;10.024;2023-12-04T01:58:29;94250.03;;;-6.46;93.56
27643;BME280;15053;48.618;10.024;2023-12-04T02:00:56;94232.63;;;-6.56;92.98
27643;BME280;15053;48.618;10.024;2023-12-04T02:03:23;94237.31;;;-6.53;93.11
27643;BME280;15053;48.618;10.024;2023-12-04T02:05:51;94237.31;;;-6.53;92.84
27643;BME280;15053;48.618;10.024;2023-12-04T02:08:17;94236.13;;;-6.57;92.94
27643;BME280;15053;48.618;10.024;2023-12-04T02:10:44;94235.16;;;-6.56;93.33
27643;BME280;15053;48.618;10.024;2023-12-04T02:13:11;94228.31;;;-6.62;92.79
27643;BME280;15053;48.618;10.024;2023-12-04T02:15:38;94243.97;;;-6.52;93.30
27643;BME280;15053;48.618;10.024;2023-12-04T02:18:04;94236.38;;;-6.52;93.21
27643;BME280;15053;48.618;10.024;2023-12-04T02:20:34;94232.88;;;-6.51;93.17
27643;BME280;15053;48.618;10.024;2023-12-04T02:23:01;94237.19;;;-6.45;93.74
27643;BME280;15053;48.618;10.024;2023-12-04T02:25:29;94237.63;;;-6.41;93.15
27643;BME280;15053;48.618;10.024;2023-12-04T02:28:05;94237.06;;;-6.37;93.45
27643;BME280;15053;48.618;10.024;2023-12-04T02:30:34;94225.78;;;-6.34;93.49
27643;BME280;15053;48.618;10.024;2023-12-04T02:33:05;94226.19;;;-6.31;93.01
27643;BME280;15053;48.618;10.024;2023-12-04T02:35:34;94224.25;;;-6.29;92.88
27643;BME280;15053;48.618;10.024;2023-12-04T02:38:02;94220.91;;;-6.36;93.06
27643;BME280;15053;48.618;10.024;2023-12-04T02:40:29;94219.88;;;-6.41;93.03
27643;BME280;15053;48.618;10.024;2023-12-04T02:42:56;94210.97;;;-6.37;92.89
27643;BME280;15053;48.618;10.024;2023-12-04T02:45:22;94204.50;;;-6.40;93.04
27643;BME280;15053;48.618;10.024;2023-12-04T02:47:49;94211.72;;;-6.37;92.53
27643;BME280;15053;48.618;10.024;2023-12-04T02:50:15;94202.38;;;-6.36;92.53
27643;BME280;15053;48.618;10.024;2023-12-04T02:52:42;94211.97;;;-6.32;93.00
27643;BME280;15053;48.618;10.024;2023-12-04T02:55:08;94203.41;;;-6.31;92.64
27643;BME280;15053;48.618;10.024;2023-12-04T02:57:35;94187.91;;;-6.49;92.60
27643;BME280;15053;48.618;10.024;2023-12-04T03:00:02;94202.94;;;-6.41;92.57
27643;BME280;15053;48.618;10.024;2023-12-04T03:02:30;94190.06;;;-6.46;92.17
27643;BME280;15053;48.618;10.024;2023-12-04T03:04:57;94195.72;;;-6.44;92.09
27643;BME280;15053;48.618;10.024;2023-12-04T03:07:23;94186.53;;;-6.45;92.62
27643;BME280;15053;48.618;10.024;2023-12-04T03:09:50;94189.44;;;-6.48;91.65
27643;BME280;15053;48.618;10.024;2023-12-04T03:12:17;94191.81;;;-6.46;91.66
27643;BME280;15053;48.618;10.024;2023-12-04T03:14:44;94184.78;;;-6.51;92.02
27643;BME280;15053;48.618;10.024;2023-12-04T03:17:11;94181.97;;;-6.63;90.61
27643;BME280;15053;48.618;10.024;2023-12-04T03:19:37;94182.25;;;-6.72;90.75
27643;BME280;15053;48.618;10.024;2023-12-04T03:22:04;94181.44;;;-6.79;91.01
27643;BME280;15053;48.618;10.024;2023-12-04T03:24:30;94187.66;;;-6.82;90.87
27643;BME280;15053;48.618;10.024;2023-12-04T03:26:58;94186.41;;;-6.92;89.85
27643;BME280;15053;48.618;10.024;2023-12-04T03:29:25;94177.16;;;-7.00;90.40
27643;BME280;15053;48.618;10.024;2023-12-04T03:31:51;94174.28;;;-6.97;90.18
27643;BME280;15053;48.618;10.024;2023-12-04T03:34:18;94177.22;;;-6.93;90.11
27643;BME280;15053;48.618;10.024;2023-12-04T03:36:44;94173.31;;;-6.96;89.89
27643;BME280;15053;48.618;10.024;2023-12-04T03:39:11;94173.38;;;-7.10;90.06
27643;BME280;15053;48.618;10.024;2023-12-04T03:41:37;94165.59;;;-7.30;89.02
27643;BME280;15053;48.618;10.024;2023-12-04T03:44:04;94156.31;;;-7.44;89.62
27643;BME280;15053;48.618;10.024;2023-12-04T03:46:30;94154.66;;;-7.58;89.36
27643;BME280;15053;48.618;10.024;2023-12-04T03:48:57;94155.97;;;-7.62;89.68
27643;BME280;15053;48.618;10.024;2023-12-04T03:51:24;94157.09;;;-7.65;90.07
27643;BME280;15053;48.618;10.024;2023-12-04T03:53:50;94143.88;;;-7.67;89.78
27643;BME280;15053;48.618;10.024;2023-12-04T03:56:17;94140.97;;;-7.64;90.44
27643;BME280;15053;48.618;10.024;2023-12-04T03:58:43;94116.78;;;-7.73;90.36
27643;BME280;15053;48.618;10.024;2023-12-04T04:01:10;94135.31;;;-7.66;91.05
27643;BME280;15053;48.618;10.024;2023-12-04T04:03:37;94132.03;;;-7.66;90.47
27643;BME280;15053;48.618;10.024;2023-12-04T04:06:06;94114.44;;;-7.74;91.21
27643;BME280;15053;48.618;10.024;2023-12-04T04:08:33;94113.09;;;-7.70;90.76
27643;BME280;15053;48.618;10.024;2023-12-04T04:10:59;94117.13;;;-7.76;91.02
27643;BME280;15053;48.618;10.024;2023-12-04T04:13:26;94119.84;;;-7.78;91.97
27643;BME280;15053;48.618;10.024;2023-12-04T04:15:52;94120.25;;;-7.74;91.95
27643;BME280;15053;48.618;10.024;2023-12-04T04:18:19;94115.63;;;-7.70;92.04
27643;BME280;15053;48.618;10.024;2023-12-04T04:20:46;94104.06;;;-7.80;91.42
27643;BME280;15053;48.618;10.024;2023-12-04T04:23:12;94111.72;;;-7.73;91.87
27643;BME280;15053;48.618;10.024;2023-12-04T04:25:39;94091.16;;;-7.70;92.76
27643;BME280;15053;48.618;10.024;2023-12-04T04:28:05;94095.97;;;-7.54;92.63
27643;BME280;15053;48.618;10.024;2023-12-04T04:30:32;94091.47;;;-7.58;92.40
27643;BME280;15053;48.618;10.024;2023-12-04T04:32:59;94082.97;;;-7.72;92.29
27643;BME280;15053;48.618;10.024;2023-12-04T04:35:25;94098.72;;;-7.70;92.29
27643;BME280;15053;48.618;10.024;2023-12-04T04:37:52;94072.72;;;-7.85;93.13
27643;BME280;15053;48.618;10.024;2023-12-04T04:40:18;94103.31;;;-7.59;93.10
27643;BME280;15053;48.618;10.024;2023-12-04T04:42:46;94095.72;;;-7.59;92.99
27643;BME280;15053;48.618;10.024;2023-12-04T04:45:12;94092.63;;;-7.61;92.80
27643;BME280;15053;48.618;10.024;2023-12-04T04:47:39;94088.16;;;-7.59;93.29
27643;BME280;15053;48.618;10.024;2023-12-04T04:50:06;94095.63;;;-7.51;93.20
27643;BME280;15053;48.618;10.024;2023-12-04T04:52:32;94101.13;;;-7.41;93.53
27643;BME280;15053;48.618;10.024;2023-12-04T04:54:59;94099.28;;;-7.32;94.07
27643;BME280;15053;48.618;10.024;2023-12-04T04:57:25;94100.28;;;-7.27;93.98
27643;BME280;15053;48.618;10.024;2023-12-04T04:59:52;94095.09;;;-7.19;93.35
27643;BME280;15053;48.618;10.024;2023-12-04T05:02:18;94086.56;;;-7.18;93.39
27643;BME280;15053;48.618;10.024;2023-12-04T05:04:45;94077.97;;;-7.23;93.51
27643;BME280;15053;48.618;10.024;2023-12-04T05:07:11;94083.81;;;-7.23;92.98
27643;BME280;15053;48.618;10.024;2023-12-04T05:09:39;94082.22;;;-7.24;92.74
27643;BME280;15053;48.618;10.024;2023-12-04T05:12:05;94080.06;;;-7.27;92.73
27643;BME280;15053;48.618;10.024;2023-12-04T05:14:32;94076.38;;;-7.24;93.51
27643;BME280;15053;48.618;10.024;2023-12-04T05:16:58;94091.97;;;-7.21;92.92
27643;BME280;15053;48.618;10.024;2023-12-04T05:19:25;94091.41;;;-7.16;93.47
27643;BME280;15053;48.618;10.024;2023-12-04T05:21:52;94081.97;;;-7.07;93.06
27643;BME280;15053;48.618;10.024;2023-12-04T05:24:18;94080.00;;;-7.12;92.82
27643;BME280;15053;48.618;10.024;2023-12-04T05:26:45;94080.16;;;-7.13;93.00
27643;BME280;15053;48.618;10.024;2023-12-04T05:29:11;94068.84;;;-7.18;92.23
27643;BME280;15053;48.618;10.024;2023-12-04T05:31:38;94066.03;;;-7.29;92.00
27643;BME280;15053;48.618;10.024;2023-12-04T05:34:05;94067.13;;;-7.38;91.54
27643;BME280;15053;48.618;10.024;2023-12-04T05:36:32;94074.13;;;-7.40;92.46
27643;BME280;15053;48.618;10.024;2023-12-04T05:38:58;94064.22;;;-7.35;92.13
27643;BME280;15053;48.618;10.024;2023-12-04T05:41:27;94063.44;;;-7.36;91.78
27643;BME280;15053;48.618;10.024;2023-12-04T05:43:53;94057.22;;;-7.40;91.79
27643;BME280;15053;48.618;10.024;2023-12-04T05:46:20;94053.53;;;-7.37;92.46
27643;BME280;15053;48.618;10.024;2023-12-04T05:48:47;94051.78;;;-7.37;92.57
27643;BME280;15053;48.618;10.024;2023-12-04T05:51:14;94045.53;;;-7.41;92.29
27643;BME280;15053;48.618;10.024;2023-12-04T05:53:41;94051.50;;;-7.48;91.67
27643;BME280;15053;48.618;10.024;2023-12-04T05:56:08;94049.75;;;-7.48;92.31
27643;BME280;15053;48.618;10.024;2023-12-04T05:58:35;94043.56;;;-7.45;92.40
27643;BME280;15053;48.618;10.024;2023-12-04T06:01:02;94055.03;;;-7.43;92.88
27643;BME280;15053;48.618;10.024;2023-12-04T06:03:29;94042.03;;;-7.40;92.34
27643;BME280;15053;48.618;10.024;2023-12-04T06:05:55;94044.94;;;-7.43;92.03
27643;BME280;15053;48.618;10.024;2023-12-04T06:08:25;94042.41;;;-7.43;92.31
27643;BME280;15053;48.618;10.024;2023-12-04T06:10:51;94032.28;;;-7.43;91.96
27643;BME280;15053;48.618;10.024;2023-12-04T06:13:18;94027.47;;;-7.38;92.33
27643;BME280;15053;48.618;10.024;2023-12-04T06:15:44;94027.09;;;-7.35;92.28
27643;BME280;15053;48.618;10.024;2023-12-04T06:18:11;94019.94;;;-7.31;91.99
27643;BME280;15053;48.618;10.024;2023-12-04T06:20:38;94018.31;;;-7.39;91.40
27643;BME280;15053;48.618;10.024;2023-12-04T06:23:04;94020.97;;;-7.47;91.37
27643;BME280;15053;48.618;10.024;2023-12-04T06:25:31;94014.31;;;-7.54;90.99
27643;BME280;15053;48.618;10.024;2023-12-04T06:27:58;94017.03;;;-7.56;90.51
27643;BME280;15053;48.618;10.024;2023-12-04T06:30:24;94024.31;;;-7.67;90.65
27643;BME280;15053;48.618;10.024;2023-12-04T06:32:51;94026.59;;;-7.72;90.51
27643;BME280;15053;48.618;10.024;2023-12-04T06:35:18;94029.91;;;-7.72;91.13
27643;BME280;15053;48.618;10.024;2023-12-04T06:37:48;94034.00;;;-7.71;90.95
27643;BME280;15053;48.618;10.024;2023-12-04T06:40:15;94027.91;;;-7.77;90.62
27643;BME280;15053;48.618;10.024;2023-12-04T06:42:42;94024.00;;;-7.79;91.52
27643;BME280;15053;48.618;10.024;2023-12-04T06:45:09;94021.84;;;-7.82;91.13
27643;BME280;15053;48.618;10.024;2023-12-04T06:47:36;94015.53;;;-7.93;90.56
27643;BME280;15053;48.618;10.024;2023-12-04T06:50:03;94010.84;;;-7.96;90.98
27643;BME280;15053;48.618;10.024;2023-12-04T06:52:30;93996.00;;;-8.05;91.02
27643;BME280;15053;48.618;10.024;2023-12-04T06:54:56;93996.50;;;-8.10;90.56
27643;BME280;15053;48.618;10.024;2023-12-04T06:57:23;93993.94;;;-8.16;91.04
27643;BME280;15053;48.618;10.024;2023-12-04T06:59:50;93992.91;;;-8.22;91.58
27643;BME280;15053;48.618;10.024;2023-12-04T07:02:16;93986.66;;;-8.26;91.36
27643;BME280;15053;48.618;10.024;2023-12-04T07:04:43;93991.53;;;-8.24;91.17
27643;BME280;15053;48.618;10.024;2023-12-04T07:07:10;93989.75;;;-8.30;91.19
27643;BME280;15053;48.618;10.024;2023-12-04T07:09:38;93986.78;;;-8.34;91.05
27643;BME280;15053;48.618;10.024;2023-12-04T07:12:05;93987.56;;;-8.33;91.56
27643;BME280;15053;48.618;10.024;2023-12-04T07:14:32;93981.31;;;-8.38;91.58
27643;BME280;15053;48.618;10.024;2023-12-04T07:17:00;93976.66;;;-8.41;91.89
27643;BME280;15053;48.618;10.024;2023-12-04T07:19:26;93973.34;;;-8.41;91.96
27643;BME280;15053;48.618;10.024;2023-12-04T07:21:53;93975.84;;;-8.41;91.94
27643;BME280;15053;48.618;10.024;2023-12-04T07:24:20;93968.53;;;-8.36;91.95
27643;BME280;15053;48.618;10.024;2023-12-04T07:26:46;93968.97;;;-8.32;92.32
27643;BME280;15053;48.618;10.024;2023-12-04T07:29:13;93965.44;;;-8.31;91.76
27643;BME280;15053;48.618;10.024;2023-12-04T07:31:41;93972.06;;;-8.30;92.33
27643;BME280;15053;48.618;10.024;2023-12-04T07:34:07;93961.97;;;-8.30;93.17
27643;BME280;15053;48.618;10.024;2023-12-04T07:36:34;93943.22;;;-8.43;91.87
27643;BME280;15053;48.618;10.024;2023-12-04T07:39:01;93965.16;;;-8.22;92.36
27643;BME280;15053;48.618;10.024;2023-12-04T07:41:27;93967.47;;;-8.20;92.46
27643;BME280;15053;48.618;10.024;2023-12-04T07:43:54;93970.97;;;-8.21;92.71
27643;BME280;15053;48.618;10.024;2023-12-04T07:46:21;93973.97;;;-8.11;92.53
27643;BME280;15053;48.618;10.024;2023-12-04T07:48:47;93985.88;;;-8.05;92.54
27643;BME280;15053;48.618;10.024;2023-12-04T07:51:14;93971.56;;;-7.98;92.93
27643;BME280;15053;48.618;10.024;2023-12-04T07:53:41;93976.06;;;-7.94;92.74
27643;BME280;15053;48.618;10.024;2023-12-04T07:56:07;93979.25;;;-7.85;92.53
27643;BME280;15053;48.618;10.024;2023-12-04T07:58:34;93983.44;;;-7.71;92.96
27643;BME280;15053;48.618;10.024;2023-12-04T08:01:01;93983.53;;;-7.58;92.80
27643;BME280;15053;48.618;10.024;2023-12-04T08:03:27;93978.75;;;-7.53;92.58
27643;BME280;15053;48.618;10.024;2023-12-04T08:05:54;93986.34;;;-7.53;92.15
27643;BME280;15053;48.618;10.024;2023-12-04T08:08:21;93987.72;;;-7.50;92.37
27643;BME280;15053;48.618;10.024;2023-12-04T08:10:48;93981.31;;;-7.46;92.25
27643;BME280;15053;48.618;10.024;2023-12-04T08:13:14;93978.25;;;-7.42;92.08
27643;BME280;15053;48.618;10.024;2023-12-04T08:15:43;93979.06;;;-7.35;91.73
27643;BME280;15053;48.618;10.024;2023-12-04T08:18:09;93975.16;;;-7.37;90.78
27643;BME280;15053;48.618;10.024;2023-12-04T08:20:36;93959.19;;;-7.38;90.94
27643;BME280;15053;48.618;10.024;2023-12-04T08:23:06;93965.22;;;-7.39;90.78
27643;BME280;15053;48.618;10.024;2023-12-04T08:25:33;93962.09;;;-7.41;90.47
27643;BME280;15053;48.618;10.024;2023-12-04T08:28:00;93940.69;;;-7.45;90.18
27643;BME280;15053;48.618;10.024;2023-12-04T08:30:27;93933.84;;;-7.51;89.79
27643;BME280;15053;48.618;10.024;2023-12-04T08:32:54;93930.72;;;-7.53;89.82
27643;BME280;15053;48.618;10.024;2023-12-04T08:35:21;93932.69;;;-7.48;89.66
27643;BME280;15053;48.618;10.024;2023-12-04T08:37:48;93925.53;;;-7.45;89.98
27643;BME280;15053;48.618;10.024;2023-12-04T08:40:15;93923.81;;;-7.38;89.38
27643;BME280;15053;48.618;10.024;2023-12-04T08:42:43;93919.19;;;-7.28;89.56
27643;BME280;15053;48.618;10.024;2023-12-04T08:45:09;93927.38;;;-7.26;89.55
27643;BME280;15053;48.618;10.024;2023-12-04T08:47:36;93932.13;;;-7.09;90.53
27643;BME280;15053;48.618;10.024;2023-12-04T08:50:03;93928.69;;;-6.95;90.30
27643;BME280;15053;48.618;10.024;2023-12-04T08:52:31;93921.69;;;-6.93;89.76
27643;BME280;15053;48.618;10.024;2023-12-04T08:54:57;93907.47;;;-7.01;88.61
27643;BME280;15053;48.618;10.024;2023-12-04T08:57:24;93913.09;;;-6.99;89.20
27643;BME280;15053;48.618;10.024;2023-12-04T08:59:51;93921.91;;;-6.88;89.09
27643;BME280;15053;48.618;10.024;2023-12-04T09:02:17;93922.94;;;-6.76;89.04
27643;BME280;15053;48.618;10.024;2023-12-04T09:04:44;93917.50;;;-6.67;89.31
27643;BME280;15053;48.618;10.024;2023-12-04T09:07:11;93921.97;;;-6.69;89.06
27643;BME280;15053;48.618;10.024;2023-12-04T09:09:58;93920.03;;;-6.73;88.34
27643;BME280;15053;48.618;10.024;2023-12-04T09:12:26;93916.31;;;-6.77;88.21
27643;BME280;15053;48.618;10.024;2023-12-04T09:14:53;93910.44;;;-6.84;88.14
27643;BME280;15053;48.618;10.024;2023-12-04T09:17:19;93905.38;;;-6.84;87.88
27643;BME280;15053;48.618;10.024;2023-12-04T09:19:48;93906.19;;;-6.77;87.70
27643;BME280;15053;48.618;10.024;2023-12-04T09:22:15;93900.38;;;-6.71;88.42
27643;BME280;15053;48.618;10.024;2023-12-04T09:24:46;93889.47;;;-6.65;87.60
27643;BME280;15053;48.618;10.024;2023-12-04T09:27:13;93905.44;;;-6.71;87.75
27643;BME280;15053;48.618;10.024;2023-12-04T09:29:41;93897.66;;;-6.63;88.16
27643;BME280;15053;48.618;10.024;2023-12-04T09:32:07;93892.63;;;-6.50;87.64
27643;BME280;15053;48.618;10.024;2023-12-04T09:34:34;93897.47;;;-6.55;87.52
27643;BME280;15053;48.618;10.024;2023-12-04T09:37:01;93907.59;;;-6.55;87.50
27643;BME280;15053;48.618;10.024;2023-12-04T09:39:36;93929.81;;;-6.50;87.70
27643;BME280;15053;48.618;10.024;2023-12-04T09:42:03;93904.34;;;-6.36;88.11
27643;BME280;15053;48.618;10.024;2023-12-04T09:44:30;93913.53;;;-6.22;87.87
27643;BME280;15053;48.618;10.024;2023-12-04T09:46:58;93912.56;;;-6.08;88.21
27643;BME280;15053;48.618;10.024;2023-12-04T09:49:28;93904.75;;;-6.06;87.73
27643;BME280;15053;48.618;10.024;2023-12-04T09:52:01;93916.44;;;-5.79;87.82
27643;BME280;15053;48.618;10.024;2023-12-04T09:54:29;93912.72;;;-5.70;87.64
27643;BME280;15053;48.618;10.024;2023-12-04T09:56:57;93916.03;;;-5.63;87.61
27643;BME280;15053;48.618;10.024;2023-12-04T09:59:24;93898.69;;;-5.53;87.03
27643;BME280;15053;48.618;10.024;2023-12-04T10:01:52;93893.56;;;-5.40;87.25
27643;BME280;15053;48.618;10.024;2023-12-04T10:04:19;93880.06;;;-5.14;86.79
27643;BME280;15053;48.618;10.024;2023-12-04T10:06:49;93868.72;;;-5.11;86.43
27643;BME280;15053;48.618;10.024;2023-12-04T10:09:17;93874.97;;;-5.14;85.87
27643;BME280;15053;48.618;10.024;2023-12-04T10:11:45;93896.59;;;-4.98;85.46
27643;BME280;15053;48.618;10.024;2023-12-04T10:14:17;93871.16;;;-4.85;84.04
27643;BME280;15053;48.618;10.024;2023-12-04T10:16:44;93867.00;;;-4.73;84.25
27643;BME280;15053;48.618;10.024;2023-12-04T10:19:16;93883.97;;;-4.67;84.22
27643;BME280;15053;48.618;10.024;2023-12-04T10:21:48;93867.72;;;-4.59;83.28
27643;BME280;15053;48.618;10.024;2023-12-04T10:24:42;93855.56;;;-4.57;83.23
27643;BME280;15053;48.618;10.024;2023-12-04T10:27:09;93851.22;;;-4.50;83.36
27643;BME280;15053;48.618;10.024;2023-12-04T10:29:46;93844.75;;;-4.46;83.16
27643;BME280;15053;48.618;10.024;2023-12-04T10:32:18;93850.16;;;-4.36;82.86
27643;BME280;15053;48.618;10.024;2023-12-04T10:34:47;93839.75;;;-4.28;82.53
27643;BME280;15053;48.618;10.024;2023-12-04T10:37:14;93842.88;;;-4.26;82.50
27643;BME280;15053;48.618;10.024;2023-12-04T10:39:48;93832.63;;;-4.13;82.28
27643;BME280;15053;48.618;10.024;2023-12-04T10:42:28;93823.75;;;-4.04;82.47
27643;BME280;15053;48.618;10.024;2023-12-04T10:44:59;93825.63;;;-3.93;82.23
27643;BME280;15053;48.618;10.024;2023-12-04T10:47:29;93822.94;;;-3.80;82.54
27643;BME280;15053;48.618;10.024;2023-12-04T10:49:59;93820.66;;;-3.63;81.80
27643;BME280;15053;48.618;10.024;2023-12-04T10:52:25;93817.19;;;-3.50;81.83
27643;BME280;15053;48.618;10.024;2023-12-04T10:54:52;93815.47;;;-3.57;81.28
27643;BME280;15053;48.618;10.024;2023-12-04T10:57:26;93803.03;;;-3.65;80.96
27643;BME280;15053;48.618;10.024;2023-12-04T11:00:12;93786.44;;;-3.67;80.93
27643;BME280;15053;48.618;10.024;2023-12-04T11:02:43;93795.06;;;-3.68;81.08
27643;BME280;15053;48.618;10.024;2023-12-04T11:05:16;93778.25;;;-3.69;81.06
27643;BME280;15053;48.618;10.024;2023-12-04T11:07:50;93791.16;;;-3.71;80.76
27643;BME280;15053;48.618;10.024;2023-12-04T11:10:46;93784.03;;;-3.62;80.75
27643;BME280;15053;48.618;10.024;2023-12-04T11:13:17;93778.47;;;-3.52;80.70
27643;BME280;15053;48.618;10.024;2023-12-04T11:15:48;93769.75;;;-3.45;80.50
27643;BME280;15053;48.618;10.024;2023-12-04T11:18:21;93761.53;;;-3.29;80.85
27643;BME280;15053;48.618;10.024;2023-12-04T11:20:54;93760.66;;;-3.05;80.74
27643;BME280;15053;48.618;10.024;2023-12-04T11:23:23;93762.38;;;-2.87;79.96
27643;BME280;15053;48.618;10.024;2023-12-04T11:25:50;93761.75;;;-2.71;79.64
27643;BME280;15053;48.618;10.024;2023-12-04T11:28:18;93755.91;;;-2.60;79.39
27643;BME280;15053;48.618;10.024;2023-12-04T11:30:45;93741.53;;;-2.54;79.36
27643;BME280;15053;48.618;10.024;2023-12-04T11:33:12;93735.75;;;-2.50;79.21
27643;BME280;15053;48.618;10.024;2023-12-04T11:35:39;93732.78;;;-2.47;79.38
27643;BME280;15053;48.618;10.024;2023-12-04T11:38:06;93733.03;;;-2.36;78.84
27643;BME280;15053;48.618;10.024;2023-12-04T11:40:36;93733.16;;;-2.31;77.64
27643;BME280;15053;48.618;10.024;2023-12-04T11:43:27;93728.69;;;-2.36;77.39
27643;BME280;15053;48.618;10.024;2023-12-04T11:46:07;93726.34;;;-2.49;77.47
27643;BME280;15053;48.618;10.024;2023-12-04T11:48:38;93720.72;;;-2.51;77.41
27643;BME280;15053;48.618;10.024;2023-12-04T11:51:08;93713.41;;;-2.48;77.65
27643;BME280;15053;48.618;10.024;2023-12-04T11:53:38;93692.69;;;-2.40;77.50
27643;BME280;15053;48.618;10.024;2023-12-04T11:56:11;93694.34;;;-2.22;78.11
27643;BME280;15053;48.618;10.024;2023-12-04T11:58:45;93691.25;;;-2.12;77.54
27643;BME280;15053;48.618;10.024;2023-12-04T12:01:11;93685.59;;;-2.14;76.70
27643;BME280;15053;48.618;10.024;2023-12-04T12:03:38;93683.25;;;-2.27;76.02
27643;BME280;15053;48.618;10.024;2023-12-04T12:06:06;93687.34;;;-2.38;75.69
27643;BME280;15053;48.618;10.024;2023-12-04T12:08:33;93685.34;;;-2.59;75.37
27643;BME280;15053;48.618;10.024;2023-12-04T12:11:00;93663.50;;;-2.78;76.12
27643;BME280;15053;48.618;10.024;2023-12-04T12:13:27;93697.13;;;-2.58;76.25
27643;BME280;15053;48.618;10.024;2023-12-04T12:15:53;93703.84;;;-2.52;77.35
27643;BME280;15053;48.618;10.024;2023-12-04T12:18:21;93699.19;;;-2.55;76.98
27643;BME280;15053;48.618;10.024;2023-12-04T12:20:49;93701.94;;;-2.68;77.35
27643;BME280;15053;48.618;10.024;2023-12-04T12:23:16;93708.22;;;-2.82;77.55
27643;BME280;15053;48.618;10.024;2023-12-04T12:25:42;93693.81;;;-3.00;77.84
27643;BME280;15053;48.618;10.024;2023-12-04T12:28:09;93690.41;;;-3.24;77.98
27643;BME280;15053;48.618;10.024;2023-12-04T12:30:36;93677.53;;;-3.59;79.02
27643;BME280;15053;48.618;10.024;2023-12-04T12:33:03;93669.34;;;-3.79;78.98
27643;BME280;15053;48.618;10.024;2023-12-04T12:35:30;93674.09;;;-4.00;79.55
27643;BME280;15053;48.618;10.024;2023-12-04T12:37:57;93676.00;;;-4.14;80.39
27643;BME280;15053;48.618;10.024;2023-12-04T12:40:27;93679.75;;;-4.17;81.07
27643;BME280;15053;48.618;10.024;2023-12-04T12:43:03;93681.78;;;-4.25;81.54
27643;BME280;15053;48.618;10.024;2023-12-04T12:45:40;93692.78;;;-4.31;81.60
27643;BME280;15053;48.618;10.024;2023-12-04T12:48:12;93701.81;;;-4.35;82.15
27643;BME280;15053;48.618;10.024;2023-12-04T12:50:39;93699.00;;;-4.27;82.62
27643;BME280;15053;48.618;10.024;2023-12-04T12:53:05;93677.47;;;-4.25;82.62